Meath Environmental Platform

Observations for Trim Market St

Time AQI Temp °C Hum % Pres Pa CO μg/m³ H₂S μg/m³ NO μg/m³ NO₂ μg/m³ O₃ μg/m³ SO₂ μg/m³ PM1 μg/m³ PM2.5 μg/m³ PM10 μg/m³
Sunday 16 August 2026
03:08 2 15.5 66 57,452 0.26 0 1.45 7.07 52.87 0 3.56 5.21 7.53
03:07 2 15.5 66 57,452 0.26 0 1.36 7.07 50.97 0 2.85 5.7 10.78
03:05 2 15.5 66 57,461 0.24 0 1.48 8.17 54.68 0 2.85 3.73 6.88
02:58 2 15.5 66 57,492 0.24 0 1.4 7.05 49.04 0 2.85 4.24 8.18
02:57 2 15.5 66 57,498 0.24 0 1.45 6.69 48.89 0 2.14 5.23 7.53
02:56 2 15.5 66 57,502 0.24 0 1.47 8.03 55.81 0 3.56 4.73 6.88
02:55 2 15.5 66 57,506 0.25 0 1.6 7.16 47.92 0 2.85 4.74 8.18
02:54 2 15.5 66 57,513 0.24 0 1.7 7.39 49.55 0 2.14 3.26 6.22
02:53 2 15.5 66 57,515 0.25 0 1.7 7.88 46.42 0 2.14 4.25 6.22
02:52 2 15.5 66 57,519 0.25 0 1.84 6.92 49.71 0 3.56 4.74 6.88
02:51 2 15.6 66 57,523 0.24 0 1.69 7 50.86 0 2.85 3.75 6.22
02:50 2 15.5 66 57,526 0.24 0 1.64 7.38 51.34 0 2.14 4.25 6.22
02:49 2 15.6 66 57,530 0.24 0 1.59 7.82 50.74 0 3.56 4.74 6.88
02:48 2 15.6 66 57,534 0.24 0 1.75 7.45 47.55 0 2.14 3.76 6.22
02:47 2 15.6 65 57,537 0.23 0 1.74 7.81 45.57 0 2.14 4.75 7.53
02:46 2 15.6 65 57,538 0.23 0 2.1 6.51 55.78 0 2.85 6.72 9.49
02:44 2 15.6 65 57,539 0.23 0 2.16 8.84 53.5 0 1.43 2.78 4.91
02:42 2 15.6 65 57,547 0.23 0 1.63 8.19 52.96 0 2.85 5.25 8.18
02:41 2 15.6 65 57,551 0.23 0 1.56 7.44 50.38 0 2.85 4.26 6.87
02:40 2 15.6 65 57,561 0.24 0 1.6 7.55 48.03 0 2.14 3.77 5.57